createdAt,value
2018-06-05T00:01:11.922Z,13.78
2018-06-05T00:03:40.725Z,14.77
2018-06-05T00:06:11.974Z,14.40
2018-06-05T00:08:41.501Z,14.58
2018-06-05T00:11:12.709Z,13.93
2018-06-05T00:13:41.860Z,15.10
2018-06-05T00:19:07.292Z,14.67
2018-06-05T00:21:38.863Z,14.37
2018-06-05T00:24:11.050Z,15.43
2018-06-05T00:26:44.830Z,14.50
2018-06-05T00:29:19.285Z,14.73
2018-06-05T00:31:48.084Z,14.60
2018-06-05T00:34:17.581Z,15.10
2018-06-05T00:37:00.514Z,15.60
2018-06-05T00:39:30.012Z,15.10
2018-06-05T00:41:59.294Z,15.45
2018-06-05T00:44:28.158Z,16.05
2018-06-05T00:46:57.300Z,15.33
2018-06-05T00:49:31.715Z,15.85
2018-06-05T00:52:10.826Z,17.03
2018-06-05T00:54:43.231Z,17.23
2018-06-05T00:57:16.040Z,15.98
2018-06-05T00:59:46.869Z,17.10
2018-06-05T01:02:17.534Z,18.33
2018-06-05T01:04:59.995Z,18.73
2018-06-05T01:07:53.605Z,18.37
2018-06-05T01:10:29.157Z,17.50
2018-06-05T01:13:01.512Z,15.35
2018-06-05T01:18:17.145Z,16.97
2018-06-05T01:20:48.433Z,17.32
2018-06-05T01:23:17.927Z,16.50
2018-06-05T01:34:43.375Z,18.90
2018-06-05T01:37:17.693Z,19.07
2018-06-05T01:39:50.327Z,19.05
2018-06-05T01:42:28.207Z,20.23
2018-06-05T01:53:39.688Z,21.02
2018-06-05T01:56:18.816Z,21.52
2018-06-05T02:01:41.244Z,23.80
2018-06-05T02:04:11.101Z,26.20
2018-06-05T02:06:54.700Z,26.20
2018-06-05T02:09:28.409Z,28.83
2018-06-05T02:12:02.428Z,29.90
2018-06-05T02:14:35.957Z,29.87
2018-06-05T02:17:12.242Z,31.97
2018-06-05T02:19:44.564Z,31.57
2018-06-05T02:58:20.422Z,29.37
2018-06-05T03:00:48.886Z,28.83
2018-06-05T03:03:18.423Z,29.92
2018-06-05T03:08:45.406Z,28.05
2018-06-05T03:11:14.902Z,27.00
2018-06-05T03:13:43.320Z,28.00
2018-06-05T03:16:11.854Z,29.27
2018-06-05T03:18:40.213Z,27.83
2018-06-05T03:21:08.508Z,27.43
2018-06-05T03:23:36.825Z,29.03
2018-06-05T03:26:05.196Z,29.12
2018-06-05T03:28:33.529Z,28.40
2018-06-05T03:31:01.923Z,25.80
2018-06-05T03:33:30.222Z,24.45
2018-06-05T03:35:58.702Z,24.92
2018-06-05T03:38:27.107Z,22.95
2018-06-05T03:40:55.466Z,24.55
2018-06-05T03:43:23.784Z,23.07
2018-06-05T03:45:52.184Z,22.27
2018-06-05T03:48:20.540Z,21.42
2018-06-05T03:50:48.929Z,20.60
2018-06-05T03:53:17.257Z,20.65
2018-06-05T03:55:45.560Z,22.17
2018-06-05T03:58:13.970Z,20.80
2018-06-05T04:00:42.338Z,20.00
2018-06-05T04:03:10.653Z,20.60
2018-06-05T04:05:39.046Z,20.75
2018-06-05T04:08:07.403Z,19.07
2018-06-05T04:10:35.794Z,20.88
2018-06-05T04:13:04.194Z,21.33
2018-06-05T04:15:33.002Z,21.73
2018-06-05T04:18:01.404Z,21.17
2018-06-05T04:20:29.784Z,21.33
2018-06-05T04:22:59.026Z,20.65
2018-06-05T04:25:41.142Z,22.32
2018-06-05T04:28:09.517Z,20.68
2018-06-05T04:30:37.903Z,22.07
2018-06-05T04:33:06.252Z,21.52
2018-06-05T04:35:34.700Z,21.75
2018-06-05T04:38:03.198Z,20.72
2018-06-05T04:40:31.581Z,20.88
2018-06-05T04:43:00.014Z,25.77
2018-06-05T04:45:42.102Z,25.90
2018-06-05T04:48:10.490Z,24.98
2018-06-05T04:50:38.894Z,28.17
2018-06-05T04:53:07.340Z,29.07
2018-06-05T04:55:35.729Z,30.60
2018-06-05T04:58:04.231Z,27.77
2018-06-05T05:00:32.735Z,27.73
2018-06-05T05:03:01.166Z,26.75
2018-06-05T05:05:29.625Z,24.52
2018-06-05T05:07:57.999Z,23.45
2018-06-05T05:10:26.394Z,24.50
2018-06-05T05:12:55.035Z,23.25
2018-06-05T05:21:08.861Z,22.22
2018-06-05T05:23:37.279Z,19.95
2018-06-05T05:26:05.925Z,21.37
2018-06-05T05:28:34.409Z,20.73
2018-06-05T05:31:02.806Z,23.35
2018-06-05T05:33:31.281Z,21.50
2018-06-05T05:35:59.934Z,22.70
2018-06-05T05:38:28.303Z,19.85
2018-06-05T05:40:56.749Z,20.37
2018-06-05T05:43:25.101Z,18.90
2018-06-05T05:45:53.469Z,17.12
2018-06-05T05:48:21.841Z,18.10
2018-06-05T05:50:50.197Z,17.98
2018-06-05T05:53:18.601Z,17.95
2018-06-05T05:56:09.689Z,18.02
2018-06-05T05:58:38.543Z,19.57
2018-06-05T06:01:06.903Z,17.85
2018-06-05T06:03:38.928Z,21.20
2018-06-05T06:09:00.444Z,17.10
2018-06-05T06:11:32.412Z,21.65
2018-06-05T06:14:02.578Z,20.37
2018-06-05T06:16:31.976Z,20.02
2018-06-05T06:19:00.970Z,18.77
2018-06-05T06:21:29.433Z,19.90
2018-06-05T06:24:04.385Z,19.60
2018-06-05T06:29:26.102Z,20.00
2018-06-05T06:31:57.145Z,20.92
2018-06-05T06:34:25.466Z,21.73
2018-06-05T06:36:53.949Z,20.43
2018-06-05T06:39:22.554Z,23.85
2018-06-05T06:41:50.900Z,23.27
2018-06-05T06:44:19.426Z,23.87
2018-06-05T06:46:47.898Z,22.65
2018-06-05T06:49:16.484Z,23.35
2018-06-05T06:51:45.066Z,21.27
2018-06-05T06:54:13.444Z,22.15
2018-06-05T06:56:42.068Z,20.97
2018-06-05T06:59:10.506Z,19.05
2018-06-05T07:01:38.919Z,21.55
2018-06-05T07:04:07.310Z,21.40
2018-06-05T07:06:35.748Z,22.25
2018-06-05T07:09:06.066Z,20.02
2018-06-05T07:11:34.550Z,22.60
2018-06-05T07:14:03.029Z,21.25
2018-06-05T07:19:38.500Z,22.10
2018-06-05T07:22:07.181Z,20.62
2018-06-05T07:24:35.967Z,21.17
2018-06-05T07:27:09.671Z,22.07
2018-06-05T07:29:38.183Z,21.60
2018-06-05T07:32:06.744Z,22.45
2018-06-05T07:34:35.205Z,22.07
2018-06-05T07:37:17.318Z,21.97
2018-06-05T07:39:45.834Z,21.35
2018-06-05T07:42:14.364Z,22.73
2018-06-05T07:44:42.992Z,23.02
2018-06-05T07:47:11.618Z,20.92
2018-06-05T07:49:40.013Z,22.70
2018-06-05T07:52:08.413Z,22.75
2018-06-05T07:54:37.014Z,20.35
2018-06-05T08:00:20.514Z,21.37
2018-06-05T08:02:49.887Z,23.80
2018-06-05T08:05:19.227Z,21.60
2018-06-05T08:07:49.025Z,22.15
2018-06-05T08:10:18.909Z,22.52
2018-06-05T08:12:47.472Z,23.60
2018-06-05T08:15:15.957Z,21.10
2018-06-05T08:17:44.298Z,22.15
2018-06-05T08:20:13.090Z,23.07
2018-06-05T08:22:52.709Z,23.15
2018-06-05T08:25:21.943Z,24.60
2018-06-05T08:27:50.759Z,23.90
2018-06-05T08:30:19.183Z,24.35
2018-06-05T08:32:47.843Z,23.80
2018-06-05T08:35:16.285Z,24.65
2018-06-05T08:37:44.732Z,25.90
2018-06-05T08:40:13.205Z,25.77
2018-06-05T08:42:41.779Z,23.87
2018-06-05T08:45:11.247Z,23.02
2018-06-05T08:47:40.153Z,23.22
2018-06-05T08:50:08.760Z,24.18
2018-06-05T08:52:37.352Z,24.80
2018-06-05T08:57:59.202Z,24.87
2018-06-05T09:00:27.590Z,25.27
2018-06-05T09:02:56.209Z,25.27
2018-06-05T09:05:43.458Z,23.27
2018-06-05T09:08:12.361Z,23.02
2018-06-05T09:10:40.900Z,23.75
2018-06-05T09:13:09.572Z,21.77
2018-06-05T09:18:31.409Z,22.52
2018-06-05T09:20:59.833Z,22.17
2018-06-05T09:23:28.726Z,22.37
2018-06-05T09:25:57.359Z,22.48
2018-06-05T09:28:26.697Z,20.90
2018-06-05T09:30:55.111Z,19.37
2018-06-05T09:33:24.141Z,20.70
2018-06-05T09:35:52.872Z,21.70
2018-06-05T09:38:21.679Z,21.90
2018-06-05T09:40:50.099Z,22.07
2018-06-05T09:43:18.539Z,21.95
2018-06-05T09:45:47.006Z,21.40
2018-06-05T09:48:15.724Z,21.20
2018-06-05T09:50:46.349Z,21.57
2018-06-05T09:53:14.864Z,22.37
2018-06-05T09:55:43.282Z,22.50
2018-06-05T09:58:11.798Z,24.00
2018-06-05T10:00:45.971Z,23.57
2018-06-05T10:03:15.060Z,22.37
2018-06-05T10:05:43.840Z,22.02
2018-06-05T10:08:13.185Z,22.65
2018-06-05T10:10:41.626Z,22.85
2018-06-05T10:13:10.037Z,21.75
2018-06-05T10:15:38.615Z,20.97
2018-06-05T10:18:07.016Z,21.12
2018-06-05T10:20:35.391Z,21.93
2018-06-05T10:23:03.862Z,21.75
2018-06-05T10:25:45.967Z,20.75
2018-06-05T10:28:14.369Z,20.77
2018-06-05T10:30:42.763Z,20.00
2018-06-05T10:33:12.138Z,21.12
2018-06-05T10:44:18.957Z,22.67
2018-06-05T10:46:52.399Z,21.27
2018-06-05T10:49:20.771Z,21.73
2018-06-05T10:51:49.515Z,22.13
2018-06-05T10:54:17.935Z,20.88
2018-06-05T10:56:46.356Z,21.82
2018-06-05T10:59:14.783Z,21.50
2018-06-05T11:01:43.285Z,21.85
2018-06-05T11:04:11.977Z,22.10
2018-06-05T11:06:40.493Z,23.70
2018-06-05T11:09:08.920Z,25.30
2018-06-05T11:11:37.378Z,23.75
2018-06-05T11:14:05.959Z,23.45
2018-06-05T11:16:39.496Z,22.73
2018-06-05T11:19:08.131Z,21.97
2018-06-05T11:21:36.625Z,22.22
2018-06-05T11:24:05.105Z,22.30
2018-06-05T11:26:47.182Z,22.22
2018-06-05T11:29:15.667Z,21.85
2018-06-05T11:31:44.248Z,23.35
2018-06-05T11:34:12.727Z,23.92
2018-06-05T11:36:46.275Z,25.77
2018-06-05T11:39:14.584Z,21.52
2018-06-05T11:41:43.087Z,21.12
2018-06-05T11:44:11.519Z,21.85
2018-06-05T11:46:58.746Z,20.95
2018-06-05T11:49:27.169Z,19.82
2018-06-05T11:51:55.873Z,19.20
2018-06-05T11:54:24.261Z,19.35
2018-06-05T11:56:53.637Z,19.52
2018-06-05T11:59:22.058Z,18.87
2018-06-05T12:01:50.588Z,21.00
2018-06-05T12:04:19.442Z,20.27
2018-06-05T12:06:47.919Z,19.45
2018-06-05T12:09:16.384Z,19.57
2018-06-05T12:11:44.753Z,19.75
2018-06-05T12:14:13.579Z,23.92
2018-06-05T12:16:47.033Z,18.77
2018-06-05T12:19:16.216Z,19.40
2018-06-05T12:21:44.653Z,21.37
2018-06-05T12:24:13.003Z,22.40
2018-06-05T12:29:44.039Z,21.30
2018-06-05T12:32:12.963Z,20.80
2018-06-05T12:34:41.757Z,20.40
2018-06-05T12:37:19.909Z,19.62
2018-06-05T12:39:48.922Z,19.55
2018-06-05T12:42:17.606Z,18.92
2018-06-05T12:44:46.490Z,18.12
2018-06-05T12:47:17.398Z,19.12
2018-06-05T12:49:47.651Z,18.92
2018-06-05T12:52:17.098Z,20.52
2018-06-05T12:54:46.399Z,18.65
2018-06-05T12:57:22.167Z,17.73
2018-06-05T12:59:51.599Z,18.62
2018-06-05T13:02:20.043Z,19.98
2018-06-05T13:04:48.830Z,19.50
2018-06-05T13:07:17.579Z,18.12
2018-06-05T13:09:46.177Z,20.35
2018-06-05T13:12:17.190Z,20.30
2018-06-05T13:14:48.552Z,20.55
2018-06-05T13:17:17.111Z,18.73
2018-06-05T13:19:45.496Z,21.20
2018-06-05T13:22:13.826Z,20.62
2018-06-05T13:24:42.164Z,20.43
2018-06-05T13:27:24.289Z,20.02
2018-06-05T13:29:53.128Z,20.30
2018-06-05T13:32:21.539Z,20.65
2018-06-05T13:34:49.940Z,20.75
2018-06-05T13:37:18.461Z,21.15
2018-06-05T13:39:47.253Z,21.07
2018-06-05T13:42:15.658Z,20.40
2018-06-05T13:44:43.970Z,43.85
2018-06-05T13:47:12.566Z,20.30
2018-06-05T13:49:40.934Z,19.07
2018-06-05T13:52:09.372Z,19.90
2018-06-05T13:54:37.902Z,21.07
2018-06-05T13:59:59.208Z,18.50
2018-06-05T14:02:27.704Z,18.77
2018-06-05T14:04:56.189Z,20.00
2018-06-05T14:07:25.301Z,19.67
2018-06-05T14:09:54.900Z,16.95
2018-06-05T14:12:23.588Z,21.70
2018-06-05T14:14:52.035Z,19.67
2018-06-05T14:17:20.603Z,20.15
2018-06-05T14:19:48.936Z,19.40
2018-06-05T14:22:17.279Z,21.25
2018-06-05T14:24:45.811Z,20.00
2018-06-05T14:27:32.921Z,18.60
2018-06-05T14:30:01.359Z,19.77
2018-06-05T14:32:29.725Z,18.67
2018-06-05T14:34:58.098Z,18.73
2018-06-05T14:37:28.033Z,21.62
2018-06-05T14:39:56.952Z,20.80
2018-06-05T14:42:25.595Z,20.23
2018-06-05T14:44:54.103Z,21.27
2018-06-05T14:47:22.570Z,19.32
2018-06-05T14:49:51.055Z,22.35
2018-06-05T14:52:19.745Z,18.77
2018-06-05T14:54:48.052Z,19.40
2018-06-05T14:57:25.967Z,16.00
2018-06-05T14:59:54.658Z,20.50
2018-06-05T15:02:23.001Z,19.98
2018-06-05T15:04:52.088Z,17.35
2018-06-05T15:07:20.559Z,19.07
2018-06-05T15:09:48.980Z,17.90
2018-06-05T15:12:17.371Z,16.80
2018-06-05T15:14:45.897Z,18.23
2018-06-05T15:17:14.426Z,18.75
2018-06-05T15:19:42.907Z,17.98
2018-06-05T15:22:11.336Z,16.52
2018-06-05T15:24:39.897Z,16.70
2018-06-05T15:27:08.428Z,17.20
2018-06-05T15:29:37.459Z,15.08
2018-06-05T15:32:06.552Z,13.25
2018-06-05T15:34:35.085Z,14.83
2018-06-05T15:37:03.629Z,12.33
2018-06-05T15:39:32.204Z,12.33
2018-06-05T15:42:00.950Z,12.85
2018-06-05T15:44:29.991Z,11.97
2018-06-05T15:47:00.480Z,12.33
2018-06-05T15:49:29.012Z,12.03
2018-06-05T15:51:57.983Z,12.58
2018-06-05T15:54:26.907Z,12.45
2018-06-05T15:56:55.591Z,12.35
2018-06-05T15:59:24.417Z,12.58
2018-06-05T16:01:53.237Z,12.28
2018-06-05T16:04:22.031Z,12.23
2018-06-05T16:06:50.901Z,12.20
2018-06-05T16:09:19.559Z,13.05
2018-06-05T16:11:48.159Z,13.68
2018-06-05T16:14:17.265Z,12.37
2018-06-05T16:16:59.392Z,13.13
2018-06-05T16:19:28.721Z,12.78
2018-06-05T16:21:58.028Z,11.65
2018-06-05T16:24:26.768Z,13.03
2018-06-05T16:26:55.253Z,12.43
2018-06-05T16:29:24.347Z,12.03
2018-06-05T16:31:52.897Z,12.23
2018-06-05T16:34:22.045Z,13.15
2018-06-05T16:37:13.182Z,12.53
2018-06-05T16:39:41.818Z,12.47
2018-06-05T16:42:10.539Z,12.85
2018-06-05T16:44:39.286Z,12.75
2018-06-05T16:47:21.470Z,11.70
2018-06-05T16:49:50.106Z,12.40
2018-06-05T16:52:18.736Z,12.30
2018-06-05T16:54:47.502Z,12.00
2018-06-05T16:57:29.738Z,12.63
2018-06-05T16:59:58.372Z,12.05
2018-06-05T17:02:27.077Z,12.53
2018-06-05T17:04:55.816Z,13.15
2018-06-05T17:07:24.706Z,12.35
2018-06-05T17:09:53.906Z,12.33
2018-06-05T17:12:22.654Z,12.13
2018-06-05T17:14:51.132Z,12.07
2018-06-05T17:17:33.337Z,12.68
2018-06-05T17:20:02.247Z,11.90
2018-06-05T17:22:31.289Z,12.75
2018-06-05T17:25:01.462Z,15.68
2018-06-05T17:27:30.660Z,13.08
2018-06-05T17:29:59.718Z,12.30
2018-06-05T17:32:29.147Z,13.22
2018-06-05T17:34:57.872Z,13.08
2018-06-05T17:37:26.506Z,13.38
2018-06-05T17:39:55.334Z,12.03
2018-06-05T17:42:23.909Z,13.10
2018-06-05T17:44:52.608Z,12.43
2018-06-05T17:47:39.916Z,12.60
2018-06-05T17:50:08.532Z,12.28
2018-06-05T17:52:37.166Z,12.50
2018-06-05T17:58:12.748Z,12.20
2018-06-05T18:00:41.363Z,11.68
2018-06-05T18:03:09.952Z,11.15
2018-06-05T18:08:30.996Z,167.97
2018-06-05T18:11:00.076Z,198.10
2018-06-05T18:13:28.478Z,12.23
2018-06-05T18:15:57.670Z,231.90
2018-06-05T18:18:26.426Z,18.73
2018-06-05T18:20:54.820Z,158.80
2018-06-05T18:23:23.505Z,161.97
2018-06-05T18:26:14.714Z,162.23
2018-06-05T18:28:43.225Z,341.50
2018-06-05T18:31:11.795Z,128.30
2018-06-05T18:33:40.275Z,395.37
2018-06-05T18:36:22.661Z,132.90
2018-06-05T18:38:51.147Z,14.53
2018-06-05T18:41:19.771Z,15.90
2018-06-05T18:43:48.387Z,15.78
2018-06-05T18:49:09.590Z,15.00
2018-06-05T18:51:38.280Z,348.40
2018-06-05T18:54:07.238Z,164.07
2018-06-05T18:56:36.000Z,313.67
2018-06-05T18:59:04.482Z,387.37
2018-06-05T19:01:33.034Z,15.98
2018-06-05T19:04:01.674Z,308.63
2018-06-05T19:06:30.249Z,121.25
2018-06-05T19:08:58.833Z,210.37
2018-06-05T19:11:27.709Z,281.80
2018-06-05T19:13:56.101Z,21.52
2018-06-05T19:16:29.724Z,411.77
2018-06-05T19:18:59.293Z,216.70
2018-06-05T19:21:28.481Z,216.70
2018-06-05T19:23:57.402Z,227.57
2018-06-05T19:26:44.701Z,212.83
2018-06-05T19:29:13.809Z,217.87
2018-06-05T19:31:42.463Z,22.17
2018-06-05T19:34:11.405Z,184.37
2018-06-05T19:39:33.333Z,213.57
2018-06-05T19:42:01.828Z,229.40
2018-06-05T19:44:30.263Z,16.15
2018-06-05T19:46:58.790Z,154.85
2018-06-05T19:49:27.367Z,15.18
2018-06-05T19:51:55.768Z,238.00
2018-06-05T19:54:24.203Z,197.77
2018-06-05T19:56:52.771Z,248.03
2018-06-05T19:59:21.381Z,173.17
2018-06-05T20:01:49.870Z,210.67
2018-06-05T20:04:18.333Z,193.90
2018-06-05T20:06:46.904Z,46.92
2018-06-05T20:09:15.503Z,45.45
2018-06-05T20:11:43.993Z,175.20
2018-06-05T20:14:12.550Z,14.80
2018-06-05T20:16:41.119Z,187.00
2018-06-05T20:19:10.001Z,16.73
2018-06-05T20:21:38.469Z,239.50
2018-06-05T20:24:07.517Z,16.02
2018-06-05T20:26:37.763Z,238.67
2018-06-05T20:29:06.473Z,231.77
2018-06-05T20:31:35.656Z,189.97
2018-06-05T20:34:04.549Z,199.50
2018-06-05T20:36:33.716Z,193.80
2018-06-05T20:39:03.253Z,189.73
2018-06-05T20:41:31.976Z,208.60
2018-06-05T20:44:00.334Z,192.23
2018-06-05T20:46:29.652Z,207.23
2018-06-05T20:48:58.937Z,203.47
2018-06-05T20:51:27.355Z,189.90
2018-06-05T20:53:56.078Z,203.57
2018-06-05T20:59:40.062Z,17.60
2018-06-05T21:02:08.685Z,18.30
2018-06-05T21:04:37.160Z,18.95
2018-06-05T21:07:05.748Z,17.67
2018-06-05T21:09:34.338Z,17.42
2018-06-05T21:12:03.028Z,17.48
2018-06-05T21:14:31.503Z,18.10
2018-06-05T21:17:00.095Z,17.75
2018-06-05T21:19:28.649Z,17.57
2018-06-05T21:21:57.120Z,17.65
2018-06-05T21:24:25.915Z,17.92
2018-06-05T21:27:13.039Z,17.57
2018-06-05T21:29:41.904Z,17.15
2018-06-05T21:32:10.660Z,17.90
2018-06-05T21:34:40.468Z,27.48
2018-06-05T21:37:08.962Z,314.23
2018-06-05T21:39:37.381Z,270.00
2018-06-05T21:42:06.171Z,298.93
2018-06-05T21:44:35.121Z,254.07
2018-06-05T21:47:03.655Z,228.63
2018-06-05T21:49:32.036Z,225.43
2018-06-05T21:52:02.536Z,219.60
2018-06-05T21:54:30.993Z,15.18
2018-06-05T21:57:13.243Z,238.93
2018-06-05T21:59:41.838Z,15.95
2018-06-05T22:02:10.856Z,16.37
2018-06-05T22:04:40.013Z,227.33
2018-06-05T22:07:09.235Z,179.17
2018-06-05T22:09:37.948Z,190.33
2018-06-05T22:12:06.497Z,207.83
2018-06-05T22:14:35.614Z,233.87
2018-06-05T22:17:05.160Z,218.20
2018-06-05T22:19:35.231Z,209.33
2018-06-05T22:22:04.160Z,17.48
2018-06-05T22:24:32.943Z,15.80
2018-06-05T22:27:03.053Z,16.30
2018-06-05T22:29:32.234Z,221.70
2018-06-05T22:32:01.019Z,212.60
2018-06-05T22:34:30.059Z,216.77
2018-06-05T22:39:56.915Z,226.63
2018-06-05T22:42:25.845Z,171.73
2018-06-05T22:44:55.567Z,148.53
2018-06-05T22:59:00.969Z,18.40
2018-06-05T23:01:30.352Z,18.75
2018-06-05T23:03:59.199Z,18.57
2018-06-05T23:06:28.020Z,18.42
2018-06-05T23:08:57.848Z,16.67
2018-06-05T23:11:26.729Z,17.73
2018-06-05T23:13:55.352Z,18.92
2018-06-05T23:16:29.076Z,18.25
2018-06-05T23:18:57.996Z,17.85
2018-06-05T23:21:27.047Z,17.87
2018-06-05T23:23:55.566Z,18.32
2018-06-05T23:26:24.105Z,17.32
2018-06-05T23:28:52.705Z,19.90
2018-06-05T23:31:21.357Z,22.25
2018-06-05T23:33:50.139Z,22.05
2018-06-05T23:36:18.905Z,21.70
2018-06-05T23:38:47.715Z,21.23
2018-06-05T23:41:16.419Z,21.55
2018-06-05T23:43:44.927Z,20.80
2018-06-05T23:46:13.345Z,20.10
2018-06-05T23:48:41.836Z,19.42
2018-06-05T23:51:10.671Z,19.17
2018-06-05T23:53:39.531Z,19.32
2018-06-05T23:56:08.423Z,18.07
2018-06-05T23:58:37.284Z,18.23
